createdAt,value
2022-10-14T00:00:47.621Z,18.72
2022-10-14T00:03:16.554Z,18.69
2022-10-14T00:05:49.431Z,18.65
2022-10-14T00:08:18.608Z,18.64
2022-10-14T00:10:47.173Z,18.65
2022-10-14T00:13:17.138Z,18.62
2022-10-14T00:15:54.905Z,18.59
2022-10-14T00:18:27.068Z,18.56
2022-10-14T00:21:00.236Z,18.59
2022-10-14T00:23:30.248Z,18.66
2022-10-14T00:26:28.401Z,18.71
2022-10-14T00:29:00.418Z,18.72
2022-10-14T00:31:36.881Z,18.73
2022-10-14T00:34:07.454Z,18.79
2022-10-14T00:36:43.967Z,18.82
2022-10-14T00:39:56.867Z,18.83
2022-10-14T00:42:27.742Z,18.82
2022-10-14T00:45:06.446Z,18.82
2022-10-14T00:48:33.654Z,18.82
2022-10-14T00:51:04.009Z,18.78
2022-10-14T00:54:43.070Z,18.82
2022-10-14T00:57:13.250Z,18.67
2022-10-14T00:59:42.184Z,18.65
2022-10-14T01:02:11.429Z,18.66
2022-10-14T01:04:53.290Z,18.70
2022-10-14T01:07:30.674Z,18.71
2022-10-14T01:10:04.516Z,18.73
2022-10-14T01:12:56.110Z,18.75
2022-10-14T01:15:32.698Z,18.74
2022-10-14T01:18:24.428Z,18.77
2022-10-14T01:21:14.916Z,18.76
2022-10-14T01:24:38.681Z,18.78
2022-10-14T01:27:20.157Z,18.71
2022-10-14T01:30:12.768Z,18.69
2022-10-14T01:32:50.838Z,18.68
2022-10-14T01:35:30.020Z,18.65
2022-10-14T01:38:06.829Z,18.73
2022-10-14T01:40:38.383Z,18.73
2022-10-14T01:43:08.403Z,18.77
2022-10-14T01:45:39.475Z,18.71
2022-10-14T01:48:08.222Z,18.80
2022-10-14T01:50:55.233Z,18.84
2022-10-14T01:53:30.001Z,18.84
2022-10-14T01:56:03.094Z,18.83
2022-10-14T01:58:36.174Z,18.83
2022-10-14T02:01:08.947Z,18.76
2022-10-14T02:03:44.521Z,18.79
2022-10-14T02:06:18.089Z,18.78
2022-10-14T02:09:05.677Z,18.81
2022-10-14T02:11:42.473Z,18.77
2022-10-14T02:14:21.371Z,18.81
2022-10-14T02:17:04.680Z,18.80
2022-10-14T02:19:41.017Z,18.84
2022-10-14T02:22:17.772Z,18.82
2022-10-14T02:24:53.454Z,18.82
2022-10-14T02:27:22.150Z,18.86
2022-10-14T02:29:53.005Z,18.89
2022-10-14T02:32:25.236Z,18.93
2022-10-14T02:34:57.776Z,18.92
2022-10-14T02:37:27.645Z,18.89
2022-10-14T02:40:08.122Z,18.88
2022-10-14T02:42:41.527Z,18.87
2022-10-14T02:45:14.061Z,18.87
2022-10-14T02:47:52.743Z,18.86
2022-10-14T02:50:27.976Z,18.77
2022-10-14T02:52:57.242Z,18.70
2022-10-14T02:55:25.882Z,18.73
2022-10-14T02:57:55.905Z,18.65
2022-10-14T03:00:26.142Z,18.67
2022-10-14T03:03:11.796Z,18.53
2022-10-14T03:05:53.442Z,18.46
2022-10-14T03:08:25.401Z,18.42
2022-10-14T03:11:01.521Z,18.37
2022-10-14T03:13:31.248Z,18.37
2022-10-14T03:16:01.584Z,18.29
2022-10-14T03:18:34.106Z,18.24
2022-10-14T03:21:13.636Z,18.25
2022-10-14T03:23:46.181Z,18.20
2022-10-14T03:26:16.854Z,18.18
2022-10-14T03:28:50.571Z,18.19
2022-10-14T03:31:30.322Z,18.20
2022-10-14T03:34:30.420Z,18.22
2022-10-14T03:37:14.888Z,18.21
2022-10-14T03:39:54.460Z,18.20
2022-10-14T03:42:27.445Z,18.12
2022-10-14T03:45:06.138Z,18.00
2022-10-14T03:47:40.805Z,17.94
2022-10-14T03:50:15.334Z,17.99
2022-10-14T03:53:04.067Z,18.04
2022-10-14T03:55:41.047Z,18.11
2022-10-14T03:58:13.850Z,18.14
2022-10-14T04:00:50.819Z,18.23
2022-10-14T04:03:46.791Z,18.31
2022-10-14T04:06:16.939Z,18.36
2022-10-14T04:08:46.635Z,18.37
2022-10-14T04:11:25.133Z,18.41
2022-10-14T04:14:00.067Z,18.46
2022-10-14T04:16:31.577Z,18.49
2022-10-14T04:19:12.921Z,18.54
2022-10-14T04:21:46.631Z,18.57
2022-10-14T04:24:21.154Z,18.60
2022-10-14T04:26:58.822Z,18.63
2022-10-14T04:29:49.956Z,18.67
2022-10-14T04:32:30.396Z,18.66
2022-10-14T04:35:01.435Z,18.52
2022-10-14T04:37:35.287Z,18.65
2022-10-14T04:40:17.713Z,18.60
2022-10-14T04:42:50.719Z,18.56
2022-10-14T04:45:25.376Z,18.54
2022-10-14T04:48:06.013Z,18.50
2022-10-14T04:50:48.114Z,18.45
2022-10-14T04:53:48.555Z,18.43
2022-10-14T04:56:38.046Z,18.44
2022-10-14T04:59:11.690Z,18.48
2022-10-14T05:02:18.383Z,18.53
2022-10-14T05:05:12.457Z,18.56
2022-10-14T05:07:46.066Z,18.56
2022-10-14T05:10:32.274Z,18.54
2022-10-14T05:13:06.023Z,18.51
2022-10-14T05:15:39.227Z,18.52
2022-10-14T05:18:21.768Z,18.46
2022-10-14T05:21:26.143Z,18.47
2022-10-14T05:24:01.447Z,18.40
2022-10-14T05:26:35.220Z,18.36
2022-10-14T05:29:11.663Z,18.35
2022-10-14T05:31:57.795Z,18.24
2022-10-14T05:34:46.452Z,18.13
2022-10-14T05:37:29.065Z,18.06
2022-10-14T05:40:04.274Z,18.08
2022-10-14T05:42:38.241Z,18.07
2022-10-14T05:45:14.699Z,18.04
2022-10-14T05:47:49.984Z,17.96
2022-10-14T05:50:22.296Z,18.03
2022-10-14T05:52:55.185Z,17.99
2022-10-14T05:55:32.185Z,18.05
2022-10-14T05:58:09.810Z,18.03
2022-10-14T06:00:43.922Z,17.98
2022-10-14T06:03:20.642Z,17.99
2022-10-14T06:06:02.322Z,17.97
2022-10-14T06:08:33.194Z,17.91
2022-10-14T06:11:04.591Z,17.88
2022-10-14T06:13:58.930Z,17.85
2022-10-14T06:16:29.777Z,17.82
2022-10-14T06:19:01.346Z,17.80
2022-10-14T06:21:30.758Z,17.79
2022-10-14T06:23:59.008Z,17.67
2022-10-14T06:26:30.037Z,17.56
2022-10-14T06:29:07.455Z,17.52
2022-10-14T06:31:48.949Z,17.48
2022-10-14T06:34:22.818Z,17.42
2022-10-14T06:37:02.046Z,17.42
2022-10-14T06:42:38.637Z,17.43
2022-10-14T06:45:24.523Z,17.44
2022-10-14T06:47:54.724Z,17.43
2022-10-14T06:50:42.245Z,17.41
2022-10-14T06:53:19.131Z,17.44
2022-10-14T06:55:55.185Z,17.48
2022-10-14T06:58:33.798Z,17.54
2022-10-14T07:01:19.810Z,17.58
2022-10-14T07:03:52.887Z,17.66
2022-10-14T07:06:29.723Z,17.68
2022-10-14T07:08:59.935Z,17.72
2022-10-14T07:11:33.407Z,17.74
2022-10-14T07:14:05.059Z,17.76
2022-10-14T07:17:05.952Z,17.71
2022-10-14T07:19:40.245Z,17.75
2022-10-14T07:22:18.363Z,17.78
2022-10-14T07:25:04.048Z,17.85
2022-10-14T07:27:39.033Z,17.79
2022-10-14T07:30:19.893Z,17.79
2022-10-14T07:36:20.056Z,17.78
2022-10-14T07:39:04.660Z,17.88
2022-10-14T07:42:01.796Z,17.94
2022-10-14T07:44:36.805Z,18.01
2022-10-14T07:47:10.329Z,18.05
2022-10-14T07:49:41.508Z,18.14
2022-10-14T07:52:10.635Z,18.19
2022-10-14T07:54:50.921Z,18.26
2022-10-14T07:57:26.168Z,18.32
2022-10-14T08:00:01.442Z,18.32
2022-10-14T08:02:44.956Z,18.34
2022-10-14T08:05:39.017Z,18.36
2022-10-14T08:08:13.077Z,18.41
2022-10-14T08:10:44.444Z,18.46
2022-10-14T08:13:13.355Z,18.49
2022-10-14T08:15:56.570Z,18.52
2022-10-14T08:18:34.092Z,18.52
2022-10-14T08:21:05.452Z,18.48
2022-10-14T08:23:38.941Z,18.46
2022-10-14T08:26:20.847Z,18.48
2022-10-14T08:28:53.157Z,18.50
2022-10-14T08:31:28.721Z,18.52
2022-10-14T08:34:04.378Z,18.53
2022-10-14T08:36:38.180Z,18.50
2022-10-14T08:39:20.243Z,18.60
2022-10-14T08:42:22.012Z,18.62
2022-10-14T08:44:59.188Z,18.67
2022-10-14T08:47:34.105Z,18.77
2022-10-14T08:50:13.829Z,18.82
2022-10-14T08:52:49.122Z,18.83
2022-10-14T08:55:25.240Z,18.84
2022-10-14T08:58:11.452Z,18.83
2022-10-14T09:00:52.315Z,18.84
2022-10-14T09:03:22.979Z,18.83
2022-10-14T09:06:14.301Z,18.79
2022-10-14T09:08:46.648Z,18.79
2022-10-14T09:11:20.423Z,18.77
2022-10-14T09:13:51.157Z,18.74
2022-10-14T09:16:25.998Z,18.74
2022-10-14T09:19:14.055Z,18.85
2022-10-14T09:21:58.268Z,18.88
2022-10-14T09:24:38.320Z,18.90
2022-10-14T09:27:15.730Z,18.91
2022-10-14T09:29:47.152Z,18.97
2022-10-14T09:32:20.515Z,19.01
2022-10-14T09:37:39.685Z,19.07
2022-10-14T09:40:16.130Z,19.08
2022-10-14T09:42:49.841Z,19.06
2022-10-14T09:45:21.428Z,19.07
2022-10-14T09:48:00.360Z,19.13
2022-10-14T09:50:47.266Z,19.14
2022-10-14T09:53:19.209Z,19.25
2022-10-14T09:56:12.533Z,19.36
2022-10-14T09:58:55.289Z,19.41
2022-10-14T10:01:28.088Z,19.51
2022-10-14T10:03:58.258Z,19.54
2022-10-14T10:06:30.655Z,19.52
2022-10-14T10:09:00.636Z,19.51
2022-10-14T10:11:36.199Z,19.54
2022-10-14T10:14:45.495Z,19.62
2022-10-14T10:20:52.531Z,19.69
2022-10-14T10:23:31.631Z,19.69
2022-10-14T10:29:40.844Z,19.78
2022-10-14T10:32:52.169Z,19.94
2022-10-14T10:45:55.296Z,20.72
2022-10-14T10:49:09.974Z,20.92
2022-10-14T10:55:56.647Z,21.09
2022-10-14T10:59:25.439Z,21.01
2022-10-14T11:02:27.476Z,20.79
2022-10-14T11:19:35.648Z,20.89
2022-10-14T11:23:23.795Z,21.08
2022-10-14T11:26:30.388Z,21.15
2022-10-14T11:29:07.321Z,20.93
2022-10-14T11:45:48.029Z,21.02
2022-10-14T11:48:38.319Z,21.40
2022-10-14T11:52:10.938Z,21.74
2022-10-14T12:08:41.041Z,22.42
2022-10-14T12:11:31.291Z,21.92
2022-10-14T12:14:08.274Z,21.67
2022-10-14T12:16:48.761Z,21.94
2022-10-14T12:19:26.542Z,22.19
2022-10-14T12:35:04.097Z,22.44
2022-10-14T12:38:28.492Z,22.67
2022-10-14T12:41:56.520Z,22.93
2022-10-14T12:52:40.189Z,23.25
2022-10-14T12:56:23.921Z,23.41
2022-10-14T12:59:54.543Z,23.03
2022-10-14T13:02:45.148Z,22.68
2022-10-14T13:05:30.159Z,22.59
2022-10-14T13:09:05.009Z,22.36
2022-10-14T13:11:59.095Z,22.29
2022-10-14T13:19:21.455Z,21.81
2022-10-14T13:29:12.845Z,21.67
2022-10-14T13:31:54.167Z,21.52
2022-10-14T13:35:00.835Z,21.50
2022-10-14T13:37:57.574Z,21.45
2022-10-14T13:45:41.153Z,21.37
2022-10-14T13:49:02.527Z,21.22
2022-10-14T13:55:35.289Z,21.35
2022-10-14T13:58:49.909Z,21.30
2022-10-14T14:04:47.297Z,21.18
2022-10-14T14:08:14.126Z,21.04
2022-10-14T14:24:34.480Z,20.74
2022-10-14T14:39:22.033Z,20.89
2022-10-14T14:57:36.304Z,20.95
2022-10-14T15:00:37.651Z,20.92
2022-10-14T15:10:42.439Z,20.96
2022-10-14T15:13:53.249Z,20.97
2022-10-14T15:21:18.748Z,21.00
2022-10-14T15:24:03.845Z,21.02
2022-10-14T15:30:36.278Z,21.19
2022-10-14T15:36:55.450Z,21.33
2022-10-14T15:40:36.349Z,21.31
2022-10-14T15:46:54.386Z,21.45
2022-10-14T16:00:20.242Z,21.14
2022-10-14T16:04:07.713Z,20.94
2022-10-14T16:28:24.988Z,20.72
2022-10-14T16:31:09.286Z,20.67
2022-10-14T16:42:03.483Z,20.85
2022-10-14T16:45:24.373Z,20.88
2022-10-14T16:47:59.947Z,20.87
2022-10-14T16:54:15.554Z,20.86
2022-10-14T16:56:58.957Z,20.88
2022-10-14T16:59:31.191Z,20.72
2022-10-14T17:02:19.568Z,20.52
2022-10-14T17:04:52.513Z,20.43
2022-10-14T17:07:23.216Z,20.38
2022-10-14T17:10:03.094Z,20.15
2022-10-14T17:12:51.910Z,20.21
2022-10-14T17:15:25.074Z,20.24
2022-10-14T17:17:57.890Z,20.23
2022-10-14T17:20:48.688Z,20.22
2022-10-14T17:23:40.390Z,20.19
2022-10-14T17:26:21.210Z,20.14
2022-10-14T17:29:37.920Z,20.13
2022-10-14T17:35:58.368Z,19.95
2022-10-14T17:41:22.179Z,19.72
2022-10-14T17:43:57.310Z,19.65
2022-10-14T17:46:27.455Z,19.59
2022-10-14T17:49:00.669Z,19.37
2022-10-14T17:51:33.411Z,19.48
2022-10-14T17:54:23.751Z,19.49
2022-10-14T17:56:59.526Z,19.42
2022-10-14T17:59:34.158Z,19.42
2022-10-14T18:02:07.690Z,19.26
2022-10-14T18:04:37.869Z,19.32
2022-10-14T18:07:11.666Z,19.34
2022-10-14T18:10:05.876Z,19.31
2022-10-14T18:12:34.921Z,19.29
2022-10-14T18:15:13.201Z,19.24
2022-10-14T18:18:08.636Z,19.28
2022-10-14T18:20:48.716Z,19.19
2022-10-14T18:23:20.320Z,19.14
2022-10-14T18:26:15.863Z,19.06
2022-10-14T18:31:34.269Z,19.06
2022-10-14T18:34:18.762Z,19.02
2022-10-14T18:36:58.756Z,18.94
2022-10-14T18:39:31.090Z,18.87
2022-10-14T18:42:07.183Z,18.79
2022-10-14T18:44:43.267Z,18.73
2022-10-14T18:47:12.561Z,18.72
2022-10-14T18:49:48.107Z,18.73
2022-10-14T18:52:31.176Z,18.69
2022-10-14T18:55:04.639Z,18.64
2022-10-14T18:57:38.376Z,18.68
2022-10-14T19:00:21.545Z,18.79
2022-10-14T19:02:59.463Z,18.86
2022-10-14T19:06:02.340Z,18.92
2022-10-14T19:12:34.888Z,18.93
2022-10-14T19:15:51.396Z,18.94
2022-10-14T19:18:56.015Z,18.85
2022-10-14T19:21:29.493Z,18.81
2022-10-14T19:24:08.859Z,18.93
2022-10-14T19:26:40.785Z,18.90
2022-10-14T19:29:29.438Z,18.96
2022-10-14T19:32:13.202Z,18.98
2022-10-14T19:34:56.534Z,18.91
2022-10-14T19:37:56.794Z,18.85
2022-10-14T19:40:32.426Z,18.81
2022-10-14T19:43:25.465Z,18.81
2022-10-14T19:45:55.860Z,18.83
2022-10-14T19:48:26.978Z,18.85
2022-10-14T19:51:01.911Z,18.90
2022-10-14T19:53:38.262Z,18.91
2022-10-14T19:56:09.208Z,18.86
2022-10-14T19:59:06.358Z,18.91
2022-10-14T20:01:58.214Z,18.88
2022-10-14T20:04:33.594Z,18.83
2022-10-14T20:07:06.531Z,18.89
2022-10-14T20:09:40.962Z,18.87
2022-10-14T20:15:27.488Z,18.81
2022-10-14T20:18:32.013Z,18.84
2022-10-14T20:22:09.151Z,18.70
2022-10-14T20:25:15.770Z,18.62
2022-10-14T20:30:41.049Z,18.59
2022-10-14T20:33:29.369Z,18.59
2022-10-14T20:36:03.766Z,18.54
2022-10-14T20:38:37.560Z,18.52
2022-10-14T20:41:11.740Z,18.53
2022-10-14T20:43:44.037Z,18.49
2022-10-14T20:46:21.027Z,18.50
2022-10-14T20:48:56.308Z,18.48
2022-10-14T20:54:48.004Z,18.42
2022-10-14T20:57:23.123Z,18.50
2022-10-14T20:59:56.729Z,18.56
2022-10-14T21:05:19.457Z,18.55
2022-10-14T21:07:57.843Z,18.53
2022-10-14T21:10:47.324Z,18.52
2022-10-14T21:13:34.262Z,18.56
2022-10-14T21:16:13.165Z,18.57
2022-10-14T21:19:09.982Z,18.53
2022-10-14T21:21:40.097Z,18.62
2022-10-14T21:24:29.207Z,18.62
2022-10-14T21:27:00.126Z,18.63
2022-10-14T21:29:31.078Z,18.66
2022-10-14T21:32:03.063Z,18.70
2022-10-14T21:34:38.141Z,18.73
2022-10-14T21:39:59.873Z,18.73
2022-10-14T21:42:55.324Z,18.71
2022-10-14T21:45:33.637Z,18.62
2022-10-14T21:48:12.355Z,18.58
2022-10-14T21:50:43.576Z,18.58
2022-10-14T21:53:26.105Z,18.61
2022-10-14T21:56:26.348Z,18.62
2022-10-14T21:59:01.405Z,18.67
2022-10-14T22:01:34.160Z,18.67
2022-10-14T22:04:19.643Z,18.60
2022-10-14T22:06:51.674Z,18.68
2022-10-14T22:09:22.014Z,18.68
2022-10-14T22:11:52.602Z,18.61
2022-10-14T22:14:30.854Z,18.69
2022-10-14T22:17:01.497Z,18.73
2022-10-14T22:19:53.239Z,18.76
2022-10-14T22:25:55.876Z,18.77
2022-10-14T22:28:36.256Z,18.82
2022-10-14T22:31:10.201Z,18.80
2022-10-14T22:34:01.701Z,18.78
2022-10-14T22:36:41.601Z,18.59
2022-10-14T22:39:19.775Z,18.65
2022-10-14T22:41:51.881Z,18.56
2022-10-14T22:44:25.753Z,18.55
2022-10-14T22:49:49.887Z,18.49
2022-10-14T22:52:22.339Z,18.50
2022-10-14T22:55:07.554Z,18.51
2022-10-14T22:57:58.006Z,18.52
2022-10-14T23:00:42.960Z,18.53
2022-10-14T23:03:17.665Z,18.57
2022-10-14T23:05:50.192Z,18.64
2022-10-14T23:08:26.628Z,18.55
2022-10-14T23:11:02.482Z,18.67
2022-10-14T23:13:33.271Z,18.66
2022-10-14T23:16:03.373Z,18.50
2022-10-14T23:18:39.720Z,18.52
2022-10-14T23:21:32.632Z,18.59
2022-10-14T23:24:05.553Z,18.58
2022-10-14T23:26:43.283Z,18.58
2022-10-14T23:29:26.488Z,18.54
2022-10-14T23:35:07.412Z,18.63
2022-10-14T23:37:43.222Z,18.62
2022-10-14T23:40:27.484Z,18.51
2022-10-14T23:42:58.441Z,18.27
2022-10-14T23:45:40.997Z,18.23
2022-10-14T23:48:36.587Z,18.08
2022-10-14T23:51:09.009Z,17.99
2022-10-14T23:53:46.096Z,17.94
2022-10-14T23:56:44.935Z,17.84
2022-10-14T23:59:23.014Z,17.77
